createdAt,value
2023-01-20T00:00:27.298Z,97966.41
2023-01-20T00:02:31.770Z,97968.06
2023-01-20T00:04:34.428Z,97969.69
2023-01-20T00:06:36.152Z,97969.94
2023-01-20T00:08:38.713Z,97978.88
2023-01-20T00:10:40.226Z,97970.78
2023-01-20T00:12:41.773Z,97978.28
2023-01-20T00:14:43.368Z,97983.69
2023-01-20T00:16:44.932Z,97981.81
2023-01-20T00:18:46.863Z,97991.59
2023-01-20T00:20:48.537Z,97991.81
2023-01-20T00:22:50.265Z,98003.44
2023-01-20T00:24:51.919Z,97988.06
2023-01-20T00:26:53.436Z,98005.09
2023-01-20T00:28:56.086Z,98006.97
2023-01-20T00:30:57.806Z,98002.16
2023-01-20T00:32:59.541Z,97997.00
2023-01-20T00:35:01.200Z,97999.44
2023-01-20T00:37:02.805Z,98008.38
2023-01-20T00:39:05.026Z,98002.97
2023-01-20T00:41:07.486Z,98005.47
2023-01-20T00:43:09.315Z,98012.75
2023-01-20T00:45:13.644Z,98010.06
2023-01-20T00:47:17.487Z,98010.06
2023-01-20T00:49:19.036Z,98015.47
2023-01-20T00:51:20.538Z,98014.63
2023-01-20T00:53:22.491Z,98020.03
2023-01-20T00:55:24.163Z,98015.47
2023-01-20T00:57:25.783Z,98013.81
2023-01-20T00:59:27.414Z,98017.34
2023-01-20T01:01:29.019Z,98021.69
2023-01-20T01:03:31.004Z,98031.69
2023-01-20T01:05:35.909Z,98028.97
2023-01-20T01:07:37.453Z,98037.91
2023-01-20T01:09:39.007Z,98050.41
2023-01-20T01:11:40.564Z,98047.91
2023-01-20T01:13:42.757Z,98049.56
2023-01-20T01:15:50.772Z,98048.75
2023-01-20T01:17:53.666Z,98054.16
2023-01-20T01:19:55.164Z,98054.97
2023-01-20T01:21:56.775Z,98054.97
2023-01-20T01:23:58.583Z,98060.38
2023-01-20T01:26:00.244Z,98063.09
2023-01-20T01:28:01.903Z,98063.91
2023-01-20T01:30:04.255Z,98064.75
2023-01-20T01:32:06.058Z,98065.78
2023-01-20T01:34:07.741Z,98059.34
2023-01-20T01:36:16.119Z,98068.28
2023-01-20T01:38:17.701Z,98073.69
2023-01-20T01:40:19.501Z,98076.41
2023-01-20T01:42:26.753Z,98082.84
2023-01-20T01:44:30.355Z,98075.56
2023-01-20T01:46:32.286Z,98081.81
2023-01-20T01:48:39.614Z,98082.59
2023-01-20T01:50:47.181Z,98080.16
2023-01-20T01:52:52.636Z,98084.50
2023-01-20T01:54:55.481Z,98089.91
2023-01-20T01:56:57.149Z,98088.25
2023-01-20T01:59:01.806Z,98087.22
2023-01-20T02:01:05.902Z,98085.56
2023-01-20T02:03:08.151Z,98078.47
2023-01-20T02:05:11.937Z,98087.22
2023-01-20T02:07:18.607Z,98082.84
2023-01-20T02:09:20.266Z,98088.25
2023-01-20T02:11:22.044Z,98083.91
2023-01-20T02:13:23.974Z,98091.78
2023-01-20T02:15:30.428Z,98090.13
2023-01-20T02:18:10.383Z,98098.47
2023-01-20T02:20:42.928Z,98097.41
2023-01-20T02:22:53.253Z,98089.75
2023-01-20T02:25:10.537Z,98099.75
2023-01-20T02:27:26.383Z,98098.66
2023-01-20T02:29:46.910Z,98101.63
2023-01-20T02:32:03.342Z,98097.03
2023-01-20T02:34:17.699Z,98099.97
2023-01-20T02:36:32.092Z,98099.97
2023-01-20T02:38:53.685Z,98099.97
2023-01-20T02:41:17.575Z,98106.44
2023-01-20T02:43:30.254Z,98104.78
2023-01-20T02:45:55.011Z,98105.63
2023-01-20T02:48:14.211Z,98101.25
2023-01-20T02:50:40.234Z,98109.16
2023-01-20T02:52:46.795Z,98099.38
2023-01-20T02:54:52.451Z,98101.25
2023-01-20T02:56:57.059Z,98102.91
2023-01-20T02:59:10.043Z,98102.31
2023-01-20T03:01:17.190Z,98106.66
2023-01-20T03:03:25.141Z,98098.53
2023-01-20T03:05:31.483Z,98103.75
2023-01-20T03:07:36.884Z,98107.47
2023-01-20T03:09:45.513Z,98107.47
2023-01-20T03:11:57.743Z,98112.06
2023-01-20T03:14:12.405Z,98108.31
2023-01-20T03:16:24.837Z,98112.91
2023-01-20T03:18:29.457Z,98106.66
2023-01-20T03:20:31.299Z,98114.56
2023-01-20T03:22:32.974Z,98113.97
2023-01-20T03:24:36.419Z,98119.97
2023-01-20T03:26:41.212Z,98110.19
2023-01-20T03:28:46.982Z,98111.25
2023-01-20T03:30:49.000Z,98116.66
2023-01-20T03:32:53.377Z,98115.00
2023-01-20T03:34:55.924Z,98113.97
2023-01-20T03:36:58.629Z,98112.91
2023-01-20T03:39:00.865Z,98114.78
2023-01-20T03:41:11.360Z,98115.00
2023-01-20T03:43:25.389Z,98118.75
2023-01-20T03:45:45.337Z,98121.47
2023-01-20T03:48:06.468Z,98117.97
2023-01-20T03:50:30.017Z,98127.13
2023-01-20T03:52:47.464Z,98128.16
2023-01-20T03:55:04.315Z,98129.22
2023-01-20T03:57:16.697Z,98125.69
2023-01-20T03:59:22.747Z,98129.22
2023-01-20T04:01:35.052Z,98133.81
2023-01-20T04:03:44.297Z,98135.69
2023-01-20T04:05:48.638Z,98132.16
2023-01-20T04:07:52.902Z,98139.22
2023-01-20T04:10:01.438Z,98142.97
2023-01-20T04:12:03.334Z,98136.13
2023-01-20T04:14:08.497Z,98141.31
2023-01-20T04:16:16.789Z,98139.66
2023-01-20T04:18:23.119Z,98143.44
2023-01-20T04:20:24.902Z,98143.44
2023-01-20T04:22:58.854Z,98148.84
2023-01-20T04:25:00.396Z,98153.44
2023-01-20T04:27:02.002Z,98150.72
2023-01-20T04:29:11.078Z,98149.88
2023-01-20T04:31:29.232Z,98163.41
2023-01-20T04:33:31.842Z,98160.13
2023-01-20T04:35:33.497Z,98163.66
2023-01-20T04:37:36.081Z,98162.56
2023-01-20T04:39:37.606Z,98170.09
2023-01-20T04:41:39.463Z,98174.47
2023-01-20T04:43:48.914Z,98170.94
2023-01-20T04:45:52.201Z,98168.22
2023-01-20T04:47:53.912Z,98168.22
2023-01-20T04:49:58.173Z,98174.47
2023-01-20T04:51:59.821Z,98176.34
2023-01-20T04:54:01.581Z,98182.56
2023-01-20T04:56:14.625Z,98182.78
2023-01-20T04:58:19.301Z,98181.94
2023-01-20T05:00:21.261Z,98183.03
2023-01-20T05:02:22.864Z,98188.44
2023-01-20T05:04:24.591Z,98187.59
2023-01-20T05:06:26.176Z,98192.19
2023-01-20T05:08:27.676Z,98190.53
2023-01-20T05:10:29.344Z,98193.47
2023-01-20T05:12:31.535Z,98198.03
2023-01-20T05:14:33.150Z,98202.63
2023-01-20T05:16:35.040Z,98203.69
2023-01-20T05:18:36.948Z,98200.16
2023-01-20T05:20:38.501Z,98206.38
2023-01-20T05:22:40.387Z,98210.13
2023-01-20T05:24:41.941Z,98210.97
2023-01-20T05:26:43.933Z,98210.13
2023-01-20T05:28:46.908Z,98213.66
2023-01-20T05:30:50.673Z,98207.66
2023-01-20T05:32:52.308Z,98214.72
2023-01-20T05:34:53.939Z,98215.19
2023-01-20T05:36:55.667Z,98228.47
2023-01-20T05:39:04.792Z,98226.81
2023-01-20T05:41:08.964Z,98221.41
2023-01-20T05:43:12.879Z,98224.13
2023-01-20T05:45:14.745Z,98217.88
2023-01-20T05:47:16.500Z,98228.69
2023-01-20T05:49:18.103Z,98230.56
2023-01-20T05:51:19.843Z,98234.31
2023-01-20T05:53:21.827Z,98240.53
2023-01-20T05:55:26.363Z,98238.09
2023-01-20T05:57:28.022Z,98234.56
2023-01-20T05:59:36.932Z,98234.56
2023-01-20T06:01:38.909Z,98235.38
2023-01-20T06:03:41.049Z,98235.59
2023-01-20T06:05:42.786Z,98246.41
2023-01-20T06:07:44.744Z,98243.94
2023-01-20T06:09:46.312Z,98243.09
2023-01-20T06:11:48.015Z,98242.28
2023-01-20T06:13:52.366Z,98252.28
2023-01-20T06:15:58.111Z,98255.19
2023-01-20T06:17:59.761Z,98256.84
2023-01-20T06:20:01.757Z,98266.00
2023-01-20T06:22:03.756Z,98269.78
2023-01-20T06:24:05.973Z,98268.09
2023-01-20T06:26:11.436Z,98278.91
2023-01-20T06:28:13.007Z,98281.03
2023-01-20T06:30:17.828Z,98276.44
2023-01-20T06:32:19.672Z,98282.91
2023-01-20T06:34:21.084Z,98289.34
2023-01-20T06:36:23.047Z,98291.25
2023-01-20T06:38:27.073Z,98293.13
2023-01-20T06:40:31.641Z,98306.03
2023-01-20T06:42:33.322Z,98307.91
2023-01-20T06:44:34.887Z,98305.19
2023-01-20T06:46:36.635Z,98314.13
2023-01-20T06:48:38.567Z,98314.34
2023-01-20T06:50:40.105Z,98312.47
2023-01-20T06:52:44.383Z,98325.97
2023-01-20T06:54:46.084Z,98320.56
2023-01-20T06:56:47.757Z,98326.22
2023-01-20T06:58:49.863Z,98324.56
2023-01-20T07:00:52.516Z,98332.66
2023-01-20T07:02:58.787Z,98329.97
2023-01-20T07:05:00.573Z,98340.16
2023-01-20T07:07:04.285Z,98345.56
2023-01-20T07:09:08.302Z,98338.50
2023-01-20T07:11:09.981Z,98348.28
2023-01-20T07:13:11.660Z,98345.78
2023-01-20T07:15:13.499Z,98341.19
2023-01-20T07:17:15.127Z,98343.91
2023-01-20T07:19:17.074Z,98352.25
2023-01-20T07:21:18.966Z,98359.28
2023-01-20T07:23:20.726Z,98359.28
2023-01-20T07:25:22.237Z,98364.69
2023-01-20T07:27:23.652Z,98367.38
2023-01-20T07:29:29.411Z,98372.78
2023-01-20T07:31:34.051Z,98363.88
2023-01-20T07:33:36.609Z,98364.69
2023-01-20T07:35:40.807Z,98374.69
2023-01-20T07:37:42.322Z,98373.63
2023-01-20T07:39:44.145Z,98372.59
2023-01-20T07:41:49.684Z,98373.41
2023-01-20T07:43:54.795Z,98377.75
2023-01-20T07:46:03.647Z,98378.59
2023-01-20T07:48:06.846Z,98376.72
2023-01-20T07:50:09.121Z,98376.72
2023-01-20T07:52:10.682Z,98382.13
2023-01-20T07:54:12.407Z,98382.97
2023-01-20T07:56:19.277Z,98382.72
2023-01-20T07:58:20.945Z,98388.13
2023-01-20T08:00:22.935Z,98390.59
2023-01-20T08:02:24.357Z,98393.31
2023-01-20T08:04:26.075Z,98395.81
2023-01-20T08:06:28.051Z,98399.34
2023-01-20T08:08:32.025Z,98405.34
2023-01-20T08:10:34.125Z,98404.28
2023-01-20T08:12:35.628Z,98400.53
2023-01-20T08:14:37.942Z,98411.09
2023-01-20T08:16:39.657Z,98409.25
2023-01-20T08:18:41.549Z,98414.44
2023-01-20T08:20:43.163Z,98416.09
2023-01-20T08:22:44.683Z,98415.03
2023-01-20T08:24:46.684Z,98411.50
2023-01-20T08:26:51.446Z,98431.03
2023-01-20T08:28:53.970Z,98421.88
2023-01-20T08:31:02.664Z,98429.75
2023-01-20T08:33:07.447Z,98432.47
2023-01-20T08:35:09.508Z,98428.72
2023-01-20T08:37:11.182Z,98429.31
2023-01-20T08:39:15.830Z,98430.16
2023-01-20T08:41:23.431Z,98428.28
2023-01-20T08:43:27.570Z,98438.03
2023-01-20T08:45:29.319Z,98440.53
2023-01-20T08:47:31.065Z,98439.47
2023-01-20T08:49:33.010Z,98450.88
2023-01-20T08:51:35.195Z,98450.66
2023-01-20T08:53:40.290Z,98450.44
2023-01-20T08:55:41.917Z,98461.03
2023-01-20T08:57:43.426Z,98459.16
2023-01-20T08:59:46.875Z,98468.91
2023-01-20T09:01:48.457Z,98468.50
2023-01-20T09:04:04.269Z,98470.13
2023-01-20T09:06:07.847Z,98470.94
2023-01-20T09:08:09.337Z,98479.91
2023-01-20T09:10:11.841Z,98480.50
2023-01-20T09:12:13.394Z,98483.19
2023-01-20T09:14:16.324Z,98490.03
2023-01-20T09:16:19.694Z,98483.59
2023-01-20T09:18:21.553Z,98485.47
2023-01-20T09:20:23.301Z,98487.75
2023-01-20T09:22:24.966Z,98492.06
2023-01-20T09:24:26.690Z,98496.44
2023-01-20T09:26:36.271Z,98499.16
2023-01-20T09:28:38.043Z,98500.81
2023-01-20T09:30:40.508Z,98504.13
2023-01-20T09:32:43.109Z,98508.50
2023-01-20T09:34:44.741Z,98513.91
2023-01-20T09:36:49.260Z,98517.25
2023-01-20T09:39:09.664Z,98520.53
2023-01-20T09:41:45.586Z,98518.03
2023-01-20T09:43:56.697Z,98525.13
2023-01-20T09:46:07.446Z,98523.25
2023-01-20T09:49:12.090Z,98525.72
2023-01-20T09:51:43.473Z,98526.56
2023-01-20T09:53:58.375Z,98526.56
2023-01-20T09:56:08.961Z,98526.31
2023-01-20T09:58:34.660Z,98534.44
2023-01-20T10:00:39.711Z,98529.66
2023-01-20T10:02:47.035Z,98529.41
2023-01-20T10:05:00.496Z,98526.72
2023-01-20T10:07:43.168Z,98528.38
2023-01-20T10:09:49.521Z,98531.09
2023-01-20T10:12:07.355Z,98533.31
2023-01-20T10:14:25.416Z,98527.91
2023-01-20T10:16:42.284Z,98535.81
2023-01-20T10:18:51.209Z,98528.53
2023-01-20T10:21:12.515Z,98533.94
2023-01-20T10:23:32.326Z,98534.56
2023-01-20T10:25:50.349Z,98530.78
2023-01-20T10:27:55.860Z,98535.38
2023-01-20T10:30:05.813Z,98531.63
2023-01-20T10:32:25.284Z,98537.84
2023-01-20T10:34:34.353Z,98535.75
2023-01-20T10:36:38.930Z,98530.34
2023-01-20T10:38:52.717Z,98539.06
2023-01-20T10:41:00.456Z,98534.28
2023-01-20T10:43:16.030Z,98535.31
2023-01-20T10:45:34.240Z,98535.91
2023-01-20T10:47:51.450Z,98542.16
2023-01-20T10:50:30.254Z,98541.13
2023-01-20T10:52:46.217Z,98538.41
2023-01-20T10:55:38.235Z,98540.88
2023-01-20T10:57:39.982Z,98545.25
2023-01-20T10:59:48.329Z,98545.03
2023-01-20T11:01:59.393Z,98544.59
2023-01-20T11:04:06.028Z,98537.28
2023-01-20T11:06:17.456Z,98542.22
2023-01-20T11:08:26.732Z,98546.59
2023-01-20T11:10:32.273Z,98544.50
2023-01-20T11:12:41.344Z,98549.72
2023-01-20T11:14:44.508Z,98555.47
2023-01-20T11:16:50.417Z,98550.91
2023-01-20T11:18:56.913Z,98554.44
2023-01-20T11:21:08.123Z,98550.81
2023-01-20T11:23:37.762Z,98557.84
2023-01-20T11:25:39.457Z,98554.03
2023-01-20T11:27:44.165Z,98562.66
2023-01-20T11:29:56.398Z,98557.78
2023-01-20T11:31:59.561Z,98559.09
2023-01-20T11:34:17.672Z,98559.84
2023-01-20T11:36:19.816Z,98561.41
2023-01-20T11:38:24.211Z,98564.06
2023-01-20T11:40:28.500Z,98560.81
2023-01-20T11:42:43.520Z,98558.81
2023-01-20T11:44:54.140Z,98565.81
2023-01-20T11:46:58.645Z,98566.09
2023-01-20T11:49:14.802Z,98563.63
2023-01-20T11:51:25.359Z,98563.91
2023-01-20T11:53:36.286Z,98567.97
2023-01-20T11:55:48.774Z,98569.84
2023-01-20T11:57:56.761Z,98563.50
2023-01-20T12:00:00.986Z,98575.91
2023-01-20T12:02:27.504Z,98569.06
2023-01-20T12:04:43.979Z,98577.69
2023-01-20T12:07:11.667Z,98579.84
2023-01-20T12:09:19.889Z,98581.19
2023-01-20T12:11:30.360Z,98586.50
2023-01-20T12:14:23.121Z,98582.84
2023-01-20T12:16:30.054Z,98586.59
2023-01-20T12:18:45.419Z,98589.78
2023-01-20T12:21:08.193Z,98587.75
2023-01-20T12:23:23.077Z,98587.41
2023-01-20T12:25:31.949Z,98591.28
2023-01-20T12:27:36.789Z,98589.28
2023-01-20T12:29:45.043Z,98587.84
2023-01-20T12:31:49.101Z,98586.91
2023-01-20T12:34:15.195Z,98586.75
2023-01-20T12:36:38.423Z,98594.78
2023-01-20T12:39:28.158Z,98595.47
2023-01-20T12:42:02.719Z,98591.66
2023-01-20T12:44:31.752Z,98594.63
2023-01-20T12:46:55.784Z,98603.06
2023-01-20T12:49:42.054Z,98599.72
2023-01-20T12:52:09.976Z,98593.59
2023-01-20T12:54:48.435Z,98598.19
2023-01-20T12:57:14.476Z,98596.91
2023-01-20T12:59:43.727Z,98600.81
2023-01-20T13:02:04.033Z,98603.06
2023-01-20T13:04:48.323Z,98605.25
2023-01-20T13:07:06.539Z,98603.16
2023-01-20T13:09:14.309Z,98601.34
2023-01-20T13:11:51.239Z,98603.09
2023-01-20T13:14:40.196Z,98602.84
2023-01-20T13:16:58.974Z,98602.63
2023-01-20T13:19:13.908Z,98608.16
2023-01-20T13:21:21.107Z,98606.28
2023-01-20T13:23:26.828Z,98605.66
2023-01-20T13:25:28.790Z,98615.13
2023-01-20T13:27:35.392Z,98605.81
2023-01-20T13:29:36.815Z,98605.47
2023-01-20T13:31:38.373Z,98607.59
2023-01-20T13:33:42.132Z,98615.75
2023-01-20T13:35:47.440Z,98617.66
2023-01-20T13:37:52.309Z,98621.69
2023-01-20T13:39:59.927Z,98623.81
2023-01-20T13:42:01.584Z,98624.56
2023-01-20T13:44:35.829Z,98626.09
2023-01-20T13:46:44.592Z,98623.28
2023-01-20T13:49:21.819Z,98620.69
2023-01-20T13:51:43.890Z,98624.59
2023-01-20T13:53:48.665Z,98632.38
2023-01-20T13:55:55.316Z,98633.59
2023-01-20T13:57:56.921Z,98638.69
2023-01-20T14:00:03.561Z,98641.75
2023-01-20T14:02:20.678Z,98646.50
2023-01-20T14:04:22.566Z,98643.66
2023-01-20T14:06:26.141Z,98652.53
2023-01-20T14:08:39.810Z,98638.00
2023-01-20T14:10:42.027Z,98647.66
2023-01-20T14:12:43.533Z,98639.16
2023-01-20T14:14:49.223Z,98639.88
2023-01-20T14:16:51.309Z,98647.66
2023-01-20T14:18:56.747Z,98647.06
2023-01-20T14:21:16.029Z,98653.78
2023-01-20T14:23:34.065Z,98655.09
2023-01-20T14:25:35.664Z,98658.84
2023-01-20T14:27:42.076Z,98660.94
2023-01-20T14:29:48.479Z,98662.00
2023-01-20T14:31:50.202Z,98668.72
2023-01-20T14:33:51.916Z,98668.13
2023-01-20T14:35:53.534Z,98665.66
2023-01-20T14:37:55.387Z,98679.69
2023-01-20T14:40:00.570Z,98678.28
2023-01-20T14:42:02.444Z,98685.00
2023-01-20T14:44:16.759Z,98684.63
2023-01-20T14:46:19.040Z,98685.13
2023-01-20T14:48:33.275Z,98686.41
2023-01-20T14:50:38.638Z,98687.69
2023-01-20T14:52:43.910Z,98692.50
2023-01-20T14:54:55.962Z,98696.50
2023-01-20T14:56:59.073Z,98693.19
2023-01-20T14:59:00.707Z,98704.28
2023-01-20T15:01:05.405Z,98703.69
2023-01-20T15:03:11.696Z,98708.50
2023-01-20T15:05:31.256Z,98705.44
2023-01-20T15:07:32.968Z,98708.38
2023-01-20T15:09:35.281Z,98708.84
2023-01-20T15:11:37.025Z,98716.38
2023-01-20T15:13:39.835Z,98708.72
2023-01-20T15:15:43.405Z,98719.78
2023-01-20T15:18:06.226Z,98717.75
2023-01-20T15:20:32.048Z,98717.16
2023-01-20T15:22:33.757Z,98726.59
2023-01-20T15:24:38.167Z,98723.50
2023-01-20T15:26:40.003Z,98727.47
2023-01-20T15:28:44.796Z,98736.06
2023-01-20T15:30:46.473Z,98735.47
2023-01-20T15:32:52.117Z,98743.00
2023-01-20T15:34:53.840Z,98735.31
2023-01-20T15:36:56.496Z,98742.88
2023-01-20T15:39:03.278Z,98739.75
2023-01-20T15:41:04.869Z,98740.22
2023-01-20T15:43:16.361Z,98748.81
2023-01-20T15:45:18.546Z,98741.13
2023-01-20T15:47:26.083Z,98748.88
2023-01-20T15:49:27.641Z,98752.88
2023-01-20T15:51:29.135Z,98745.19
2023-01-20T15:53:31.066Z,98749.16
2023-01-20T15:55:32.933Z,98750.25
2023-01-20T15:57:39.622Z,98750.69
2023-01-20T15:59:45.197Z,98753.00
2023-01-20T16:01:49.887Z,98758.91
2023-01-20T16:03:56.759Z,98753.91
2023-01-20T16:05:58.262Z,98760.63
2023-01-20T16:07:59.996Z,98757.31
2023-01-20T16:10:01.696Z,98762.34
2023-01-20T16:12:03.712Z,98769.03
2023-01-20T16:14:05.415Z,98757.78
2023-01-20T16:16:13.475Z,98761.78
2023-01-20T16:18:17.493Z,98771.19
2023-01-20T16:20:24.339Z,98765.38
2023-01-20T16:22:25.932Z,98773.94
2023-01-20T16:24:27.419Z,98771.69
2023-01-20T16:26:32.534Z,98775.66
2023-01-20T16:28:34.160Z,98776.09
2023-01-20T16:30:35.666Z,98780.91
2023-01-20T16:32:37.244Z,98781.34
2023-01-20T16:34:39.026Z,98785.56
2023-01-20T16:36:40.736Z,98793.91
2023-01-20T16:38:43.160Z,98798.69
2023-01-20T16:41:02.491Z,98791.84
2023-01-20T16:43:04.077Z,98799.59
2023-01-20T16:45:06.323Z,98800.03
2023-01-20T16:47:08.323Z,98796.91
2023-01-20T16:49:10.090Z,98805.50
2023-01-20T16:51:22.919Z,98806.97
2023-01-20T16:53:24.561Z,98811.78
2023-01-20T16:55:28.289Z,98813.03
2023-01-20T16:57:29.830Z,98821.59
2023-01-20T16:59:31.619Z,98822.03
2023-01-20T17:01:33.224Z,98829.53
2023-01-20T17:03:34.810Z,98827.25
2023-01-20T17:05:36.357Z,98835.59
2023-01-20T17:07:37.814Z,98833.31
2023-01-20T17:09:39.498Z,98832.13
2023-01-20T17:11:41.147Z,98835.25
2023-01-20T17:13:42.844Z,98835.66
2023-01-20T17:15:44.417Z,98835.06
2023-01-20T17:18:00.032Z,98837.34
2023-01-20T17:20:01.560Z,98834.03
2023-01-20T17:22:06.231Z,98842.59
2023-01-20T17:24:08.503Z,98847.59
2023-01-20T17:26:10.116Z,98839.69
2023-01-20T17:28:11.623Z,98844.72
2023-01-20T17:30:13.744Z,98846.78
2023-01-20T17:32:18.927Z,98846.41
2023-01-20T17:34:20.666Z,98843.88
2023-01-20T17:36:22.769Z,98848.88
2023-01-20T17:38:24.810Z,98856.56
2023-01-20T17:40:26.476Z,98855.97
2023-01-20T17:42:28.009Z,98859.09
2023-01-20T17:44:30.063Z,98855.16
2023-01-20T17:46:31.664Z,98857.25
2023-01-20T17:48:33.150Z,98862.25
2023-01-20T17:50:34.862Z,98867.22
2023-01-20T17:52:36.699Z,98867.88
2023-01-20T17:54:38.283Z,98868.94
2023-01-20T17:56:39.984Z,98867.69
2023-01-20T17:58:45.913Z,98878.09
2023-01-20T18:00:47.502Z,98879.34
2023-01-20T18:02:49.759Z,98885.16
2023-01-20T18:05:00.097Z,98877.47
2023-01-20T18:07:01.679Z,98879.97
2023-01-20T18:09:09.349Z,98881.22
2023-01-20T18:11:15.220Z,98888.72
2023-01-20T18:13:17.055Z,98884.34
2023-01-20T18:15:18.877Z,98887.47
2023-01-20T18:17:23.906Z,98883.53
2023-01-20T18:19:28.493Z,98888.72
2023-01-20T18:21:35.819Z,98888.09
2023-01-20T18:23:39.130Z,98892.84
2023-01-20T18:25:41.064Z,98885.38
2023-01-20T18:27:42.959Z,98890.38
2023-01-20T18:29:50.225Z,98897.66
2023-01-20T18:31:52.209Z,98891.81
2023-01-20T18:33:56.328Z,98893.06
2023-01-20T18:35:57.842Z,98896.00
2023-01-20T18:38:01.828Z,98897.22
2023-01-20T18:40:04.702Z,98894.94
2023-01-20T18:42:06.357Z,98907.00
2023-01-20T18:44:07.980Z,98898.44
2023-01-20T18:46:10.112Z,98899.06
2023-01-20T18:48:12.072Z,98901.16
2023-01-20T18:50:14.002Z,98905.94
2023-01-20T18:52:21.816Z,98897.63
2023-01-20T18:54:26.985Z,98911.31
2023-01-20T18:56:33.443Z,98910.91
2023-01-20T18:58:36.091Z,98914.84
2023-01-20T19:00:39.375Z,98910.69
2023-01-20T19:02:41.116Z,98920.84
2023-01-20T19:04:42.823Z,98921.25
2023-01-20T19:06:45.874Z,98923.34
2023-01-20T19:08:50.930Z,98920.81
2023-01-20T19:10:53.040Z,98922.06
2023-01-20T19:12:54.699Z,98923.13
2023-01-20T19:14:56.305Z,98922.47
2023-01-20T19:16:57.830Z,98919.16
2023-01-20T19:19:03.879Z,98922.91
2023-01-20T19:21:07.858Z,98925.78
2023-01-20T19:23:09.623Z,98928.06
2023-01-20T19:25:11.676Z,98923.06
2023-01-20T19:27:13.349Z,98934.03
2023-01-20T19:29:17.135Z,98937.16
2023-01-20T19:31:19.633Z,98932.78
2023-01-20T19:33:21.343Z,98933.81
2023-01-20T19:35:24.482Z,98933.19
2023-01-20T19:37:26.139Z,98944.81
2023-01-20T19:39:30.406Z,98939.81
2023-01-20T19:41:39.529Z,98947.91
2023-01-20T19:43:41.839Z,98948.31
2023-01-20T19:45:46.451Z,98946.47
2023-01-20T19:47:48.275Z,98954.53
2023-01-20T19:49:49.940Z,98954.75
2023-01-20T19:51:51.528Z,98956.63
2023-01-20T19:53:57.427Z,98954.75
2023-01-20T19:56:14.350Z,98954.94
2023-01-20T19:58:15.932Z,98963.88
2023-01-20T20:00:18.256Z,98965.94
2023-01-20T20:02:19.979Z,98970.72
2023-01-20T20:04:24.091Z,98972.56
2023-01-20T20:06:31.383Z,98973.59
2023-01-20T20:08:33.951Z,98974.66
2023-01-20T20:10:41.436Z,98972.97
2023-01-20T20:12:44.215Z,98978.38
2023-01-20T20:14:45.905Z,98980.22
2023-01-20T20:16:51.524Z,98979.41
2023-01-20T20:18:54.039Z,98988.53
2023-01-20T20:20:55.981Z,98992.25
2023-01-20T20:22:58.259Z,98987.69
2023-01-20T20:24:59.880Z,98994.13
2023-01-20T20:27:02.663Z,98997.84
2023-01-20T20:29:06.559Z,98994.31
2023-01-20T20:31:08.760Z,98999.09
2023-01-20T20:33:10.712Z,98998.25
2023-01-20T20:35:12.590Z,99004.69
2023-01-20T20:37:14.355Z,99001.16
2023-01-20T20:39:17.631Z,98995.75
2023-01-20T20:41:19.854Z,99003.00
2023-01-20T20:43:24.855Z,98999.47
2023-01-20T20:45:26.482Z,99009.63
2023-01-20T20:47:31.539Z,98997.38
2023-01-20T20:49:33.137Z,99006.31
2023-01-20T20:51:34.718Z,99009.19
2023-01-20T20:53:36.631Z,99006.69
2023-01-20T20:55:41.138Z,99012.94
2023-01-20T20:57:43.463Z,99018.50
2023-01-20T20:59:58.648Z,99021.41
2023-01-20T21:02:01.046Z,99012.88
2023-01-20T21:04:03.597Z,99023.84
2023-01-20T21:06:05.633Z,99013.25
2023-01-20T21:08:09.958Z,99024.25
2023-01-20T21:10:14.051Z,99013.47
2023-01-20T21:12:18.272Z,99028.78
2023-01-20T21:14:22.206Z,99026.31
2023-01-20T21:16:27.642Z,99028.38
2023-01-20T21:18:30.562Z,99032.09
2023-01-20T21:20:33.187Z,99029.41
2023-01-20T21:22:34.909Z,99035.00
2023-01-20T21:24:36.530Z,99034.16
2023-01-20T21:26:38.433Z,99029.78
2023-01-20T21:28:40.836Z,99031.63
2023-01-20T21:30:42.537Z,99035.38
2023-01-20T21:32:44.306Z,99042.41
2023-01-20T21:34:46.178Z,99045.31
2023-01-20T21:36:47.794Z,99046.34
2023-01-20T21:38:49.596Z,99045.69
2023-01-20T21:41:01.261Z,99045.69
2023-01-20T21:43:22.081Z,99049.44
2023-01-20T21:45:23.701Z,99052.31
2023-01-20T21:47:25.576Z,99054.19
2023-01-20T21:49:46.790Z,99059.38
2023-01-20T21:52:07.328Z,99050.66
2023-01-20T21:54:09.142Z,99054.38
2023-01-20T21:56:15.550Z,99049.19
2023-01-20T21:58:17.228Z,99051.91
2023-01-20T22:00:22.061Z,99056.44
2023-01-20T22:02:24.219Z,99052.91
2023-01-20T22:04:28.831Z,99063.69
2023-01-20T22:06:31.346Z,99062.00
2023-01-20T22:08:32.963Z,99064.91
2023-01-20T22:10:36.682Z,99057.84
2023-01-20T22:12:41.105Z,99064.91
2023-01-20T22:14:43.107Z,99059.53
2023-01-20T22:16:47.332Z,99066.78
2023-01-20T22:18:49.966Z,99058.69
2023-01-20T22:20:51.881Z,99068.63
2023-01-20T22:22:53.484Z,99069.47
2023-01-20T22:24:54.958Z,99069.47
2023-01-20T22:26:57.079Z,99071.31
2023-01-20T22:28:59.252Z,99069.66
2023-01-20T22:31:08.498Z,99069.84
2023-01-20T22:33:10.333Z,99069.03
2023-01-20T22:35:11.868Z,99072.38
2023-01-20T22:37:13.307Z,99075.22
2023-01-20T22:39:18.360Z,99074.22
2023-01-20T22:41:20.396Z,99066.34
2023-01-20T22:43:24.437Z,99066.34
2023-01-20T22:45:26.983Z,99074.44
2023-01-20T22:47:29.310Z,99072.53
2023-01-20T22:49:32.113Z,99084.16
2023-01-20T22:51:33.676Z,99078.78
2023-01-20T22:53:35.629Z,99082.31
2023-01-20T22:55:38.863Z,99086.84
2023-01-20T22:57:43.262Z,99093.09
2023-01-20T22:59:55.349Z,99098.69
2023-01-20T23:01:56.992Z,99098.47
2023-01-20T23:04:02.079Z,99097.63
2023-01-20T23:06:04.292Z,99102.19
2023-01-20T23:08:06.328Z,99098.47
2023-01-20T23:10:08.523Z,99098.69
2023-01-20T23:12:10.171Z,99103.03
2023-01-20T23:14:15.223Z,99101.38
2023-01-20T23:16:19.145Z,99104.88
2023-01-20T23:18:21.328Z,99109.25
2023-01-20T23:20:22.945Z,99106.34
2023-01-20T23:22:24.907Z,99099.31
2023-01-20T23:24:26.568Z,99106.19
2023-01-20T23:26:29.884Z,99119.66
2023-01-20T23:28:32.902Z,99110.72
2023-01-20T23:30:34.374Z,99127.75
2023-01-20T23:32:36.107Z,99119.44
2023-01-20T23:34:37.856Z,99125.69
2023-01-20T23:36:39.475Z,99121.13
2023-01-20T23:38:42.075Z,99126.69
2023-01-20T23:40:43.498Z,99123.84
2023-01-20T23:42:45.614Z,99123.63
2023-01-20T23:44:47.276Z,99129.00
2023-01-20T23:46:48.786Z,99129.00
2023-01-20T23:48:50.627Z,99119.06
2023-01-20T23:50:52.358Z,99125.09
2023-01-20T23:52:55.786Z,99130.50
2023-01-20T23:54:57.888Z,99130.31
2023-01-20T23:56:59.632Z,99134.03
2023-01-20T23:59:01.279Z,99135.72
